Time;durP1;ratioP1;P1;durP2;ratioP2;P2;SDS_P1;SDS_P2;PMS_P1;PMS_P2;Temp;Humidity;BMP_temperature;BMP_pressure;BME280_temperature;BME280_humidity;BME280_pressure;Samples;Min_cycle;Max_cycle;Signal;HPM_P1;HPM_P2
2022/11/19 00:00:18;;;;;;;;;;;5.90;88.70;;;;;;5028222;28;19918;-74
2022/11/19 00:02:44;;;;;;;;;;;5.90;88.90;;;;;;5024342;28;20344;-76
2022/11/19 00:05:09;;;;;;;;;;;5.90;88.80;;;;;;5027304;28;19917;-75
2022/11/19 00:07:35;;;;;;;;;;;5.90;89.70;;;;;;5028249;28;19921;-76
2022/11/19 00:10:01;;;;;;;;;;;5.90;88.90;;;;;;5031049;28;19925;-75
2022/11/19 00:15:10;;;;;;;;;;;5.90;88.90;;;;;;5030099;28;19928;-74
2022/11/19 00:17:36;;;;;;;;;;;5.80;88.90;;;;;;5029631;28;19933;-75
2022/11/19 00:20:01;;;;;;;;;;;5.80;88.90;;;;;;5029765;28;19949;-75
2022/11/19 00:22:27;;;;;;;;;;;5.80;88.90;;;;;;5029004;28;19917;-76
2022/11/19 00:24:52;;;;;;;;;;;5.80;88.80;;;;;;5027607;28;19921;-75
2022/11/19 00:27:17;;;;;;;;;;;5.80;88.90;;;;;;5024746;28;19970;-76
2022/11/19 00:29:43;;;;;;;;;;;5.80;89.00;;;;;;5023412;28;19921;-74
2022/11/19 00:32:08;;;;;;;;;;;5.70;88.90;;;;;;5017041;28;20080;-75
2022/11/19 00:34:34;;;;;;;;;;;5.70;89.00;;;;;;5030062;28;19921;-76
2022/11/19 00:36:59;;;;;;;;;;;5.70;89.00;;;;;;5027792;28;20024;-76
2022/11/19 00:39:25;;;;;;;;;;;5.70;89.00;;;;;;5029230;28;19925;-76
2022/11/19 00:41:50;;;;;;;;;;;5.70;89.00;;;;;;5020864;28;19925;-74
2022/11/19 00:44:16;;;;;;;;;;;5.70;89.80;;;;;;5028987;28;19953;-77
2022/11/19 00:46:41;;;;;;;;;;;5.60;89.00;;;;;;5008610;28;19921;-75
2022/11/19 00:49:07;;;;;;;;;;;5.60;89.00;;;;;;5028762;28;19928;-75
2022/11/19 00:51:32;;;;;;;;;;;5.60;89.00;;;;;;5028648;28;19917;-77
2022/11/19 00:53:58;;;;;;;;;;;5.60;89.00;;;;;;5028138;28;20386;-76
2022/11/19 00:56:24;;;;;;;;;;;5.50;89.00;;;;;;5027122;28;19921;-76
2022/11/19 00:58:49;;;;;;;;;;;5.50;88.90;;;;;;5025495;28;20028;-76
2022/11/19 01:01:15;;;;;;;;;;;5.50;89.00;;;;;;5023122;28;20712;-76
2022/11/19 01:03:41;;;;;;;;;;;5.40;88.90;;;;;;5030097;28;19961;-76
2022/11/19 01:06:07;;;;;;;;;;;5.40;88.90;;;;;;5025144;28;19983;-75
2022/11/19 01:08:32;;;;;;;;;;;5.30;88.90;;;;;;5037575;28;19917;-76
2022/11/19 01:11:08;;;;;;;;;;;5.30;88.90;;;;;;5025220;28;19960;-75
2022/11/19 01:13:33;;;;;;;;;;;5.20;88.90;;;;;;5026845;28;19917;-76
2022/11/19 01:15:59;;;;;;;;;;;5.20;89.00;;;;;;5020571;28;19921;-76
2022/11/19 01:18:25;;;;;;;;;;;5.20;89.00;;;;;;5022884;28;19967;-76
2022/11/19 01:20:50;;;;;;;;;;;5.10;89.00;;;;;;5022874;28;20394;-76
2022/11/19 01:23:16;;;;;;;;;;;5.10;89.10;;;;;;5021225;28;19975;-76
2022/11/19 01:25:41;;;;;;;;;;;5.10;89.10;;;;;;5024332;28;19921;-76
2022/11/19 01:28:07;;;;;;;;;;;5.10;89.20;;;;;;5022579;28;20006;-75
2022/11/19 01:30:32;;;;;;;;;;;5.10;89.20;;;;;;5021534;28;19925;-77
2022/11/19 01:32:58;;;;;;;;;;;5.10;89.20;;;;;;5024653;28;19923;-78
2022/11/19 01:35:23;;;;;;;;;;;5.00;89.20;;;;;;5025056;28;20012;-77
2022/11/19 01:37:49;;;;;;;;;;;5.00;89.20;;;;;;5023986;28;19945;-75
2022/11/19 01:40:14;;;;;;;;;;;5.00;89.30;;;;;;5023057;28;20317;-76
2022/11/19 01:42:49;;;;;;;;;;;5.00;89.20;;;;;;5024239;28;19921;-76
2022/11/19 01:45:18;;;;;;;;;;;4.90;89.20;;;;;;5015873;28;19917;-76
2022/11/19 01:47:43;;;;;;;;;;;4.90;89.20;;;;;;5024063;28;19921;-76
2022/11/19 01:50:08;;;;;;;;;;;4.90;89.70;;;;;;5022787;28;20656;-75
2022/11/19 01:52:34;;;;;;;;;;;4.90;89.30;;;;;;5023947;28;19975;-75
2022/11/19 01:55:00;;;;;;;;;;;4.90;89.30;;;;;;5021474;28;19927;-76
2022/11/19 01:57:26;;;;;;;;;;;4.90;89.40;;;;;;5022062;28;20024;-75
2022/11/19 01:59:51;;;;;;;;;;;4.80;89.30;;;;;;5007652;28;20012;-75
2022/11/19 02:02:18;;;;;;;;;;;4.80;89.40;;;;;;5038881;28;20333;-76
2022/11/19 02:04:44;;;;;;;;;;;4.80;89.40;;;;;;5019566;28;19921;-75
2022/11/19 02:07:09;;;;;;;;;;;4.80;89.30;;;;;;5020150;28;19917;-75
2022/11/19 02:09:35;;;;;;;;;;;4.80;89.30;;;;;;5022415;28;19925;-75
2022/11/19 02:12:09;;;;;;;;;;;4.80;89.40;;;;;;5022249;28;19967;-75
2022/11/19 02:14:50;;;;;;;;;;;4.80;89.40;;;;;;5022172;28;20034;-76
2022/11/19 02:17:15;;;;;;;;;;;4.80;89.70;;;;;;5021386;28;19929;-75
2022/11/19 02:19:47;;;;;;;;;;;4.70;89.30;;;;;;5022700;28;20453;-75
2022/11/19 02:22:16;;;;;;;;;;;4.70;89.30;;;;;;5019719;28;20456;-75
2022/11/19 02:24:45;;;;;;;;;;;4.70;89.30;;;;;;5019988;28;19917;-75
2022/11/19 02:27:16;;;;;;;;;;;4.70;89.30;;;;;;5022453;28;19921;-75
2022/11/19 02:29:46;;;;;;;;;;;4.70;89.40;;;;;;5022208;28;20309;-76
2022/11/19 02:32:15;;;;;;;;;;;4.70;90.00;;;;;;5023774;28;19925;-75
2022/11/19 02:34:44;;;;;;;;;;;4.70;89.40;;;;;;5038798;28;19925;-75
2022/11/19 02:37:11;;;;;;;;;;;4.70;89.40;;;;;;5021503;28;19921;-75
2022/11/19 02:39:47;;;;;;;;;;;4.60;89.30;;;;;;5006983;28;19948;-74
2022/11/19 02:42:18;;;;;;;;;;;4.60;89.30;;;;;;5022657;28;19952;-75
2022/11/19 02:45:01;;;;;;;;;;;4.60;89.40;;;;;;5016561;28;19917;-75
2022/11/19 02:47:32;;;;;;;;;;;4.50;89.40;;;;;;5006140;28;19925;-76
2022/11/19 02:49:59;;;;;;;;;;;4.50;89.40;;;;;;5022445;28;19924;-75
2022/11/19 02:52:25;;;;;;;;;;;4.50;89.40;;;;;;5021337;28;20611;-75
2022/11/19 02:54:51;;;;;;;;;;;4.50;89.30;;;;;;5026315;28;19920;-76
2022/11/19 02:57:16;;;;;;;;;;;4.50;89.40;;;;;;5025288;28;19987;-75
2022/11/19 03:05:15;;;;;;;;;;;4.30;89.30;;;;;;5023038;28;19975;-76
2022/11/19 03:07:40;;;;;;;;;;;4.30;89.50;;;;;;5021989;28;20003;-75
2022/11/19 03:10:06;;;;;;;;;;;4.30;89.50;;;;;;5024549;28;19921;-73
2022/11/19 03:12:52;;;;;;;;;;;4.30;89.50;;;;;;5026070;28;19940;-75
2022/11/19 03:18:22;;;;;;;;;;;4.30;89.50;;;;;;5026054;28;20036;-76
2022/11/19 03:20:50;;;;;;;;;;;4.30;89.50;;;;;;5029082;28;20278;-76
2022/11/19 03:23:20;;;;;;;;;;;4.20;89.50;;;;;;5025124;28;19944;-75
2022/11/19 03:25:48;;;;;;;;;;;4.20;89.50;;;;;;5009150;28;19924;-76
2022/11/19 03:28:15;;;;;;;;;;;4.20;89.50;;;;;;5023158;28;19925;-75
2022/11/19 03:30:40;;;;;;;;;;;4.20;89.60;;;;;;5024768;28;19961;-76
2022/11/19 03:33:07;;;;;;;;;;;4.20;89.50;;;;;;5027750;28;19917;-75
2022/11/19 03:35:51;;;;;;;;;;;4.20;89.60;;;;;;5026100;28;19925;-75
2022/11/19 03:38:19;;;;;;;;;;;4.10;89.60;;;;;;5023042;28;19932;-75
2022/11/19 03:40:44;;;;;;;;;;;4.10;89.60;;;;;;5007415;28;19928;-75
2022/11/19 03:43:10;;;;;;;;;;;4.10;89.50;;;;;;5028899;28;19921;-75
2022/11/19 06:04:05;;;;;;;;;;;3.30;89.80;;;;;;5063760;28;19932;-75
2022/11/19 06:06:30;;;;;;;;;;;3.30;89.80;;;;;;5019711;28;19925;-74
2022/11/19 06:08:56;;;;;;;;;;;3.30;89.80;;;;;;5058941;28;19939;-74
2022/11/19 06:14:05;;;;;;;;;;;3.30;89.80;;;;;;5032486;28;19955;-76
2022/11/19 06:16:31;;;;;;;;;;;3.20;89.80;;;;;;5013717;28;19917;-75
2022/11/19 06:18:56;;;;;;;;;;;3.30;89.90;;;;;;5028304;28;19948;-75
2022/11/19 06:21:21;;;;;;;;;;;3.20;89.80;;;;;;5020083;28;19921;-75
2022/11/19 06:23:47;;;;;;;;;;;3.20;89.80;;;;;;5022997;28;19971;-75
2022/11/19 06:26:20;;;;;;;;;;;3.20;89.80;;;;;;5031239;28;19920;-75
2022/11/19 06:28:46;;;;;;;;;;;3.20;89.80;;;;;;5042011;28;19916;-75
2022/11/19 06:31:11;;;;;;;;;;;3.30;89.90;;;;;;5011814;28;19921;-75
2022/11/19 06:33:36;;;;;;;;;;;3.20;89.80;;;;;;5049271;28;19944;-75
2022/11/19 06:36:02;;;;;;;;;;;3.20;89.90;;;;;;5025750;28;19920;-75
2022/11/19 06:38:28;;;;;;;;;;;3.20;89.90;;;;;;5039178;28;19952;-75
2022/11/19 06:40:53;;;;;;;;;;;3.20;89.80;;;;;;5049391;28;19924;-75
2022/11/19 06:43:19;;;;;;;;;;;3.20;89.80;;;;;;5048480;28;19917;-75
2022/11/19 06:45:44;;;;;;;;;;;3.10;89.70;;;;;;5051292;28;20483;-75
2022/11/19 06:48:10;;;;;;;;;;;3.10;89.80;;;;;;5031726;28;19917;-75
2022/11/19 06:50:35;;;;;;;;;;;3.10;89.90;;;;;;5049808;28;19928;-75
2022/11/19 06:53:00;;;;;;;;;;;3.10;89.90;;;;;;5043779;28;19932;-75
2022/11/19 06:55:26;;;;;;;;;;;3.10;89.90;;;;;;5029707;28;19928;-76
2022/11/19 06:57:52;;;;;;;;;;;3.10;89.90;;;;;;5044067;28;19925;-76
2022/11/19 07:00:17;;;;;;;;;;;3.10;89.90;;;;;;5025609;28;19928;-76
2022/11/19 07:02:43;;;;;;;;;;;3.10;89.90;;;;;;5046003;28;19960;-76
2022/11/19 07:05:08;;;;;;;;;;;3.10;90.00;;;;;;5029173;28;20289;-76
2022/11/19 07:07:34;;;;;;;;;;;3.10;89.90;;;;;;5042235;28;20008;-76
2022/11/19 07:09:59;;;;;;;;;;;3.10;89.90;;;;;;5025550;28;19936;-75
2022/11/19 07:12:25;;;;;;;;;;;3.10;89.90;;;;;;5025988;28;19924;-76
2022/11/19 07:14:50;;;;;;;;;;;3.10;89.90;;;;;;5024371;28;20273;-77
2022/11/19 07:17:16;;;;;;;;;;;3.10;89.90;;;;;;5025278;28;20429;-75
2022/11/19 07:19:41;;;;;;;;;;;3.10;89.90;;;;;;5040681;28;19932;-75
2022/11/19 07:22:07;;;;;;;;;;;3.10;89.90;;;;;;5040521;28;20839;-75
2022/11/19 07:24:32;;;;;;;;;;;3.10;89.90;;;;;;5021048;28;19983;-75
2022/11/19 07:26:58;;;;;;;;;;;3.10;89.90;;;;;;5021074;28;20008;-75
2022/11/19 07:29:23;;;;;;;;;;;3.00;89.90;;;;;;5041465;28;19916;-74
2022/11/19 07:31:49;;;;;;;;;;;3.00;89.90;;;;;;5016579;28;19917;-75
2022/11/19 07:34:15;;;;;;;;;;;3.00;89.80;;;;;;5011048;28;19921;-75
2022/11/19 07:36:41;;;;;;;;;;;3.00;89.90;;;;;;5029789;28;20526;-74
2022/11/19 07:39:06;;;;;;;;;;;3.00;89.90;;;;;;5030131;28;19921;-75
2022/11/19 07:44:16;;;;;;;;;;;3.00;90.00;;;;;;5041105;28;19928;-76
2022/11/19 07:46:41;;;;;;;;;;;3.00;90.00;;;;;;5041781;28;20233;-75
2022/11/19 07:49:07;;;;;;;;;;;3.00;90.00;;;;;;5021378;28;20012;-74
2022/11/19 07:51:32;;;;;;;;;;;3.00;90.00;;;;;;5038142;28;20366;-76
2022/11/19 07:53:58;;;;;;;;;;;3.00;90.00;;;;;;5033049;28;19921;-77
2022/11/19 07:56:23;;;;;;;;;;;3.00;90.00;;;;;;5028636;28;19917;-75
2022/11/19 07:58:49;;;;;;;;;;;3.00;90.00;;;;;;5037313;28;19921;-75
2022/11/19 08:01:18;;;;;;;;;;;3.00;90.00;;;;;;5038313;28;20385;-75
2022/11/19 08:03:45;;;;;;;;;;;3.00;90.00;;;;;;5037905;28;19956;-76
2022/11/19 08:06:10;;;;;;;;;;;3.00;90.00;;;;;;5048465;28;19925;-75
2022/11/19 08:08:36;;;;;;;;;;;3.00;90.00;;;;;;5025240;28;19920;-74
2022/11/19 08:11:02;;;;;;;;;;;3.00;90.00;;;;;;5042268;28;19921;-76
2022/11/19 08:13:28;;;;;;;;;;;3.00;89.90;;;;;;5024257;28;20379;-75
2022/11/19 08:15:57;;;;;;;;;;;3.00;89.90;;;;;;5040438;28;19920;-72
2022/11/19 08:18:23;;;;;;;;;;;2.90;89.90;;;;;;5043976;28;19924;-75
2022/11/19 08:20:48;;;;;;;;;;;2.90;89.90;;;;;;5041916;28;20011;-75
2022/11/19 08:23:14;;;;;;;;;;;2.90;89.90;;;;;;5049133;28;20042;-76
2022/11/19 08:25:41;;;;;;;;;;;2.90;89.90;;;;;;5062254;28;19917;-75
2022/11/19 08:28:06;;;;;;;;;;;2.90;90.00;;;;;;5029975;28;19916;-76
2022/11/19 08:30:32;;;;;;;;;;;2.90;90.00;;;;;;5055967;28;20007;-77
2022/11/19 08:32:57;;;;;;;;;;;3.00;90.00;;;;;;5058187;28;19928;-77
2022/11/19 08:35:23;;;;;;;;;;;3.00;90.00;;;;;;5071200;28;19923;-76
2022/11/19 08:37:48;;;;;;;;;;;2.90;90.00;;;;;;5041841;28;19921;-77
2022/11/19 08:40:14;;;;;;;;;;;3.00;90.00;;;;;;5012995;28;19924;-77
2022/11/19 08:45:25;;;;;;;;;;;2.90;89.90;;;;;;5071634;28;20004;-76
2022/11/19 08:47:51;;;;;;;;;;;2.90;89.90;;;;;;5070156;28;20132;-76
2022/11/19 08:50:16;;;;;;;;;;;2.90;89.90;;;;;;5068347;28;20036;-76
2022/11/19 08:52:42;;;;;;;;;;;2.90;89.90;;;;;;5072564;28;19920;-76
2022/11/19 08:55:08;;;;;;;;;;;2.90;90.00;;;;;;5055811;28;19928;-75
2022/11/19 08:57:33;;;;;;;;;;;2.90;90.00;;;;;;5075830;28;20445;-76
2022/11/19 08:59:59;;;;;;;;;;;2.90;90.00;;;;;;5069792;28;19925;-76
2022/11/19 09:02:24;;;;;;;;;;;2.90;90.00;;;;;;5068594;28;20423;-75
2022/11/19 09:04:58;;;;;;;;;;;2.90;90.00;;;;;;5050146;28;19916;-76
2022/11/19 09:07:23;;;;;;;;;;;3.00;90.00;;;;;;5062660;28;19917;-77
2022/11/19 09:09:49;;;;;;;;;;;3.00;90.00;;;;;;5056080;28;20526;-76
2022/11/19 09:12:16;;;;;;;;;;;2.90;90.00;;;;;;5062133;28;19951;-76
2022/11/19 09:14:41;;;;;;;;;;;2.90;90.00;;;;;;5065143;28;19943;-76
2022/11/19 09:17:07;;;;;;;;;;;2.90;90.00;;;;;;5069452;28;19920;-77
2022/11/19 09:19:32;;;;;;;;;;;2.90;89.90;;;;;;5066669;28;19927;-76
2022/11/19 09:21:58;;;;;;;;;;;2.90;89.90;;;;;;5068386;28;19993;-75
2022/11/19 09:24:23;;;;;;;;;;;2.90;89.90;;;;;;5023785;28;19928;-76
2022/11/19 09:26:49;;;;;;;;;;;3.00;90.00;;;;;;5059992;28;20288;-76
2022/11/19 09:29:14;;;;;;;;;;;2.90;89.90;;;;;;5064989;28;19940;-76
2022/11/19 09:31:40;;;;;;;;;;;2.90;90.00;;;;;;5036522;28;20577;-76
2022/11/19 09:34:05;;;;;;;;;;;2.90;89.90;;;;;;5047833;28;19958;-75
2022/11/19 09:36:31;;;;;;;;;;;3.00;90.00;;;;;;5068043;28;19970;-76
2022/11/19 09:38:56;;;;;;;;;;;2.90;90.00;;;;;;5047489;28;19971;-76
2022/11/19 09:41:29;;;;;;;;;;;3.00;90.00;;;;;;5055032;28;19921;-76
2022/11/19 09:44:13;;;;;;;;;;;3.00;90.00;;;;;;5061820;28;20767;-76
2022/11/19 09:46:41;;;;;;;;;;;3.00;90.00;;;;;;5048787;28;20391;-76
2022/11/19 09:49:10;;;;;;;;;;;3.00;90.00;;;;;;5065357;28;19924;-76
2022/11/19 09:51:36;;;;;;;;;;;3.00;89.90;;;;;;5041907;28;19939;-76
2022/11/19 09:54:03;;;;;;;;;;;3.00;90.00;;;;;;5060658;28;20380;-76
2022/11/19 09:56:29;;;;;;;;;;;3.00;90.00;;;;;;5047033;28;20020;-76
2022/11/19 09:58:55;;;;;;;;;;;3.00;90.00;;;;;;5041545;28;20203;-76
2022/11/19 10:01:21;;;;;;;;;;;3.00;90.00;;;;;;5060560;28;19959;-76
2022/11/19 10:03:49;;;;;;;;;;;2.90;89.90;;;;;;5036977;28;19924;-76
2022/11/19 10:06:41;;;;;;;;;;;3.00;90.00;;;;;;5061566;28;20279;-76
2022/11/19 10:09:10;;;;;;;;;;;3.00;90.00;;;;;;5035784;28;20149;-75
2022/11/19 10:11:58;;;;;;;;;;;3.00;89.90;;;;;;5065102;28;19942;-76
2022/11/19 10:14:24;;;;;;;;;;;2.90;89.80;;;;;;5039080;28;19916;-77
2022/11/19 10:16:58;;;;;;;;;;;2.90;89.80;;;;;;5067697;28;19927;-76
2022/11/19 10:19:56;;;;;;;;;;;2.90;89.80;;;;;;5067691;28;19929;-77
2022/11/19 10:22:22;;;;;;;;;;;2.90;90.20;;;;;;5027934;28;19978;-77
2022/11/19 10:24:50;;;;;;;;;;;2.80;89.80;;;;;;5075973;28;19932;-76
2022/11/19 10:27:24;;;;;;;;;;;2.90;89.90;;;;;;5066769;28;19960;-76
2022/11/19 10:29:51;;;;;;;;;;;2.90;89.90;;;;;;5048411;28;19928;-75
2022/11/19 10:32:16;;;;;;;;;;;2.90;89.90;;;;;;5047766;28;19929;-76
2022/11/19 10:34:42;;;;;;;;;;;2.90;89.90;;;;;;5055523;28;19963;-75
2022/11/19 10:37:08;;;;;;;;;;;2.90;90.00;;;;;;5064405;28;20444;-76
2022/11/19 10:39:34;;;;;;;;;;;2.90;89.90;;;;;;5048454;28;20015;-76
2022/11/19 10:42:17;;;;;;;;;;;2.90;89.90;;;;;;5069397;28;19925;-76
2022/11/19 10:44:52;;;;;;;;;;;2.90;89.80;;;;;;5024967;28;19972;-76
2022/11/19 10:47:22;;;;;;;;;;;2.90;89.80;;;;;;5044206;28;19927;-76
2022/11/19 10:49:52;;;;;;;;;;;2.80;89.70;;;;;;5047652;28;19921;-76
2022/11/19 10:52:20;;;;;;;;;;;2.80;89.80;;;;;;5049684;28;19952;-76
2022/11/19 10:54:46;;;;;;;;;;;2.80;89.80;;;;;;5031468;28;19917;-75
2022/11/19 10:57:13;;;;;;;;;;;2.80;89.80;;;;;;5059526;28;20080;-77
2022/11/19 10:59:39;;;;;;;;;;;2.80;89.90;;;;;;5047747;28;20357;-76
2022/11/19 11:02:15;;;;;;;;;;;2.90;90.00;;;;;;5035676;28;19926;-77
2022/11/19 11:04:57;;;;;;;;;;;2.80;89.90;;;;;;5051303;28;19913;-76
2022/11/19 11:07:23;;;;;;;;;;;2.90;89.90;;;;;;5063642;28;19912;-77
2022/11/19 11:09:48;;;;;;;;;;;2.90;90.00;;;;;;5042543;28;19918;-77
2022/11/19 11:15:12;;;;;;;;;;;2.90;90.00;;;;;;5038161;28;19924;-77
2022/11/19 11:17:37;;;;;;;;;;;2.90;90.00;;;;;;5053080;28;20082;-75
2022/11/19 11:20:03;;;;;;;;;;;3.00;90.00;;;;;;5068273;28;20614;-78
2022/11/19 11:22:28;;;;;;;;;;;3.00;90.00;;;;;;5071274;28;21918;-77
2022/11/19 11:24:54;;;;;;;;;;;3.00;89.90;;;;;;5046456;28;19944;-78
2022/11/19 11:27:29;;;;;;;;;;;3.00;89.90;;;;;;5040375;28;20329;-77
2022/11/19 11:30:10;;;;;;;;;;;3.00;89.90;;;;;;5064089;28;20468;-78
2022/11/19 11:32:36;;;;;;;;;;;3.10;89.90;;;;;;5053949;28;20476;-76
2022/11/19 11:35:02;;;;;;;;;;;3.10;89.80;;;;;;5050846;28;19917;-76
2022/11/19 11:37:27;;;;;;;;;;;3.00;89.80;;;;;;5040912;28;19951;-77
2022/11/19 11:39:54;;;;;;;;;;;3.10;89.80;;;;;;5048421;28;19916;-77
2022/11/19 11:42:20;;;;;;;;;;;3.10;89.80;;;;;;5066162;28;19970;-77
2022/11/19 11:45:44;;;;;;;;;;;3.00;89.80;;;;;;5058044;28;20259;-77
2022/11/19 11:48:20;;;;;;;;;;;3.10;89.90;;;;;;5038092;28;19916;-76
2022/11/19 11:50:46;;;;;;;;;;;3.10;89.80;;;;;;5038047;28;19920;-77
2022/11/19 11:53:12;;;;;;;;;;;3.10;89.80;;;;;;5066859;28;19920;-78
2022/11/19 11:55:38;;;;;;;;;;;3.10;89.80;;;;;;5048559;28;20380;-77
2022/11/19 11:58:04;;;;;;;;;;;3.10;89.80;;;;;;5040905;28;19936;-77
2022/11/19 12:00:30;;;;;;;;;;;3.10;89.80;;;;;;5049899;28;19921;-78
2022/11/19 12:03:02;;;;;;;;;;;3.10;89.80;;;;;;5069871;28;19977;-78
2022/11/19 12:08:41;;;;;;;;;;;3.00;89.70;;;;;;5043166;28;19931;-77
2022/11/19 12:11:19;;;;;;;;;;;3.10;89.80;;;;;;5067882;28;19974;-77
2022/11/19 12:13:47;;;;;;;;;;;3.10;89.80;;;;;;5049730;28;20007;-78
2022/11/19 12:16:31;;;;;;;;;;;3.10;89.70;;;;;;5048248;28;19920;-78
2022/11/19 12:18:56;;;;;;;;;;;3.10;89.70;;;;;;5049442;28;19929;-77
2022/11/19 12:21:41;;;;;;;;;;;3.00;89.70;;;;;;5066807;28;20451;-78
2022/11/19 12:24:17;;;;;;;;;;;3.00;89.70;;;;;;5067511;28;19916;-76
2022/11/19 12:26:49;;;;;;;;;;;3.00;89.70;;;;;;5049307;28;19983;-78
2022/11/19 12:29:21;;;;;;;;;;;3.00;89.80;;;;;;5068939;28;19923;-78
2022/11/19 12:32:06;;;;;;;;;;;3.00;89.80;;;;;;5062085;28;20004;-78
2022/11/19 12:34:50;;;;;;;;;;;3.10;89.80;;;;;;5065572;28;20384;-77
2022/11/19 12:37:25;;;;;;;;;;;3.10;89.80;;;;;;5040030;28;20510;-78
2022/11/19 12:39:52;;;;;;;;;;;3.00;89.80;;;;;;5053569;28;20487;-77
2022/11/19 12:42:18;;;;;;;;;;;3.00;89.70;;;;;;5032875;28;19920;-77
2022/11/19 12:44:52;;;;;;;;;;;3.00;89.70;;;;;;5067653;28;19921;-78
2022/11/19 12:47:33;;;;;;;;;;;3.10;89.70;;;;;;5061519;28;19924;-77
2022/11/19 12:50:04;;;;;;;;;;;3.10;89.70;;;;;;5041424;28;20020;-77
2022/11/19 12:52:50;;;;;;;;;;;3.10;89.80;;;;;;5023422;28;19924;-79
2022/11/19 12:55:22;;;;;;;;;;;3.00;89.70;;;;;;5062545;28;19919;-77
2022/11/19 12:57:55;;;;;;;;;;;3.00;89.70;;;;;;5058266;28;19917;-79
2022/11/19 13:00:21;;;;;;;;;;;3.00;89.80;;;;;;5044572;28;19920;-78
2022/11/19 13:02:47;;;;;;;;;;;3.00;89.80;;;;;;5060522;28;19932;-78
2022/11/19 13:05:15;;;;;;;;;;;3.00;89.80;;;;;;5047975;28;19997;-78
2022/11/19 13:07:50;;;;;;;;;;;3.10;89.80;;;;;;5032655;28;19917;-78
2022/11/19 13:10:27;;;;;;;;;;;3.10;89.80;;;;;;5049997;28;19917;-78
2022/11/19 13:12:53;;;;;;;;;;;3.20;89.90;;;;;;5058333;28;19931;-79
2022/11/19 13:15:23;;;;;;;;;;;3.20;89.80;;;;;;5065751;28;19923;-77
2022/11/19 13:17:52;;;;;;;;;;;3.20;89.70;;;;;;5050969;28;19925;-79
2022/11/19 13:20:24;;;;;;;;;;;3.20;89.70;;;;;;5041058;28;19922;-78
2022/11/19 13:22:50;;;;;;;;;;;3.20;89.70;;;;;;5044084;28;19925;-79
2022/11/19 13:25:17;;;;;;;;;;;3.20;89.70;;;;;;5031063;28;19917;-78
2022/11/19 13:27:43;;;;;;;;;;;3.20;89.70;;;;;;5045578;28;19947;-78
2022/11/19 13:30:16;;;;;;;;;;;3.20;89.70;;;;;;5034906;28;20403;-78
2022/11/19 13:33:00;;;;;;;;;;;3.20;89.60;;;;;;5050333;28;19920;-78
2022/11/19 13:35:45;;;;;;;;;;;3.20;89.60;;;;;;5062787;28;19928;-79
2022/11/19 13:38:29;;;;;;;;;;;3.10;89.60;;;;;;5048910;28;20011;-77
2022/11/19 13:41:02;;;;;;;;;;;3.20;89.70;;;;;;5065969;28;19929;-78
2022/11/19 13:46:12;;;;;;;;;;;3.10;89.60;;;;;;5066095;28;20578;-78
2022/11/19 13:48:39;;;;;;;;;;;3.10;89.60;;;;;;5066816;28;19916;-78
2022/11/19 13:51:08;;;;;;;;;;;3.10;89.70;;;;;;5040159;28;19921;-79
2022/11/19 13:53:40;;;;;;;;;;;3.10;89.70;;;;;;5025558;28;19920;-78
2022/11/19 13:56:11;;;;;;;;;;;3.10;89.70;;;;;;5044230;28;20404;-77
2022/11/19 13:58:39;;;;;;;;;;;3.10;89.70;;;;;;5048865;28;19925;-77
2022/11/19 14:01:08;;;;;;;;;;;3.10;89.70;;;;;;5046830;28;19916;-79
2022/11/19 14:03:49;;;;;;;;;;;3.10;89.70;;;;;;5046795;28;19928;-78
2022/11/19 14:06:25;;;;;;;;;;;3.10;89.70;;;;;;5058453;28;19924;-78
2022/11/19 14:08:59;;;;;;;;;;;3.10;89.70;;;;;;5042130;28;19952;-79
2022/11/19 14:12:00;;;;;;;;;;;3.10;89.70;;;;;;5060360;28;20284;-79
2022/11/19 14:26:35;;;;;;;;;;;3.00;89.60;;;;;;5063595;28;19927;-79
2022/11/19 14:29:01;;;;;;;;;;;3.00;89.60;;;;;;5063012;28;19931;-78
2022/11/19 14:31:26;;;;;;;;;;;3.10;89.70;;;;;;5043896;28;19924;-79
2022/11/19 14:33:56;;;;;;;;;;;3.00;89.60;;;;;;5065007;28;19921;-78
2022/11/19 14:36:29;;;;;;;;;;;3.10;89.70;;;;;;5051865;28;20000;-78
2022/11/19 14:38:55;;;;;;;;;;;3.00;89.60;;;;;;5043787;28;20008;-79
2022/11/19 14:41:41;;;;;;;;;;;3.00;89.60;;;;;;5029674;28;19912;-79
2022/11/19 14:44:25;;;;;;;;;;;3.00;89.70;;;;;;5036619;28;19928;-79
2022/11/19 14:46:50;;;;;;;;;;;3.00;89.70;;;;;;5065319;28;19920;-79
2022/11/19 14:49:30;;;;;;;;;;;3.00;89.60;;;;;;5048030;28;19966;-79
2022/11/19 14:51:56;;;;;;;;;;;3.00;89.60;;;;;;5050126;28;19975;-79
2022/11/19 14:54:28;;;;;;;;;;;3.00;89.70;;;;;;5019871;28;19923;-80
2022/11/19 14:57:02;;;;;;;;;;;3.00;89.70;;;;;;5026863;28;19916;-80
2022/11/19 14:59:29;;;;;;;;;;;3.00;89.80;;;;;;5040823;28;19926;-72
2022/11/19 15:01:56;;;;;;;;;;;3.00;89.80;;;;;;5043830;28;19920;-77
2022/11/19 15:04:23;;;;;;;;;;;3.00;89.80;;;;;;5022394;28;20015;-78
2022/11/19 15:06:49;;;;;;;;;;;3.00;89.80;;;;;;5037390;28;19959;-78
2022/11/19 15:09:35;;;;;;;;;;;3.00;89.80;;;;;;5071540;28;20221;-78
2022/11/19 15:12:00;;;;;;;;;;;3.00;89.80;;;;;;5070872;28;20570;-77
2022/11/19 15:14:28;;;;;;;;;;;3.00;89.80;;;;;;5071875;28;20031;-78
2022/11/19 15:16:54;;;;;;;;;;;2.90;89.70;;;;;;5058869;28;19929;-77
2022/11/19 15:19:24;;;;;;;;;;;2.90;89.70;;;;;;5056774;28;19924;-78
2022/11/19 15:21:53;;;;;;;;;;;2.90;89.70;;;;;;5053542;28;19912;-79
2022/11/19 15:24:30;;;;;;;;;;;2.90;89.70;;;;;;5061363;28;19912;-79
2022/11/19 15:26:56;;;;;;;;;;;2.90;89.80;;;;;;5050737;28;19924;-81
2022/11/19 15:29:40;;;;;;;;;;;3.00;89.80;;;;;;5070604;28;19947;-78
2022/11/19 15:32:09;;;;;;;;;;;2.90;89.70;;;;;;5075343;28;20030;-77
2022/11/19 15:34:55;;;;;;;;;;;2.90;89.80;;;;;;5078246;28;19917;-79
2022/11/19 15:37:33;;;;;;;;;;;2.90;89.80;;;;;;5058048;28;19917;-78
2022/11/19 15:39:58;;;;;;;;;;;2.90;89.70;;;;;;5057329;28;20388;-79
2022/11/19 15:42:28;;;;;;;;;;;2.90;89.70;;;;;;5075440;28;19942;-78
2022/11/19 15:44:57;;;;;;;;;;;2.90;89.80;;;;;;5054091;28;19917;-78
2022/11/19 15:47:24;;;;;;;;;;;2.80;89.70;;;;;;5037962;28;19924;-77
2022/11/19 15:49:50;;;;;;;;;;;2.80;89.70;;;;;;5036755;28;19916;-79
2022/11/19 15:52:25;;;;;;;;;;;2.80;89.70;;;;;;5042642;28;19923;-78
2022/11/19 15:54:50;;;;;;;;;;;2.80;89.80;;;;;;5070172;28;19917;-78
2022/11/19 15:57:16;;;;;;;;;;;2.80;89.80;;;;;;5065501;28;19924;-78
2022/11/19 15:59:42;;;;;;;;;;;2.80;89.80;;;;;;5055236;28;19916;-77
2022/11/19 16:02:17;;;;;;;;;;;2.80;89.80;;;;;;5046282;28;19956;-79
2022/11/19 16:04:43;;;;;;;;;;;2.80;89.80;;;;;;5036488;28;19920;-78
2022/11/19 16:07:08;;;;;;;;;;;2.80;89.80;;;;;;5061439;28;19920;-77
2022/11/19 16:09:34;;;;;;;;;;;2.80;89.80;;;;;;5056798;28;19916;-79
2022/11/19 16:17:36;;;;;;;;;;;2.80;89.80;;;;;;5064164;28;20434;-79
2022/11/19 16:20:11;;;;;;;;;;;2.80;89.80;;;;;;5040167;28;19927;-79
2022/11/19 16:22:39;;;;;;;;;;;2.80;89.80;;;;;;5073682;28;19928;-77
2022/11/19 16:25:23;;;;;;;;;;;2.70;89.80;;;;;;5071556;28;19916;-79
2022/11/19 16:27:49;;;;;;;;;;;2.70;89.90;;;;;;5033506;28;20486;-78
2022/11/19 16:30:15;;;;;;;;;;;2.70;89.90;;;;;;5044383;28;19983;-78
2022/11/19 16:32:41;;;;;;;;;;;2.70;89.90;;;;;;5057855;28;19923;-78
2022/11/19 16:35:19;;;;;;;;;;;2.70;89.90;;;;;;5057094;28;19963;-77
2022/11/19 16:37:45;;;;;;;;;;;2.70;89.90;;;;;;5048080;28;21858;-78
2022/11/19 16:40:11;;;;;;;;;;;2.70;89.90;;;;;;5048944;28;20296;-79
2022/11/19 16:42:37;;;;;;;;;;;2.80;90.00;;;;;;5013133;28;20036;-78
2022/11/19 16:45:06;;;;;;;;;;;2.70;89.90;;;;;;5048697;28;19948;-79
2022/11/19 16:47:34;;;;;;;;;;;2.70;89.90;;;;;;5048906;28;19924;-79
2022/11/19 16:50:08;;;;;;;;;;;2.80;90.00;;;;;;5034870;28;19931;-79
2022/11/19 16:52:37;;;;;;;;;;;2.70;89.90;;;;;;5033053;28;19916;-80
2022/11/19 16:55:04;;;;;;;;;;;2.80;89.90;;;;;;5055015;28;20803;-78
2022/11/19 16:57:29;;;;;;;;;;;2.80;89.90;;;;;;5074708;28;20420;-78
2022/11/19 16:59:56;;;;;;;;;;;2.80;89.90;;;;;;5033568;28;19989;-78
2022/11/19 17:02:23;;;;;;;;;;;2.80;90.00;;;;;;5048760;28;19943;-78
2022/11/19 17:04:49;;;;;;;;;;;2.80;90.00;;;;;;5037167;28;19993;-79
2022/11/19 17:07:22;;;;;;;;;;;2.80;89.90;;;;;;5054728;28;19916;-78
2022/11/19 17:09:47;;;;;;;;;;;2.80;89.90;;;;;;5036350;28;20302;-78
2022/11/19 17:12:22;;;;;;;;;;;2.80;90.30;;;;;;5048128;28;20538;-78
2022/11/19 17:14:49;;;;;;;;;;;2.80;89.90;;;;;;5043862;28;19925;-78
2022/11/19 17:17:23;;;;;;;;;;;2.80;89.90;;;;;;5036491;28;19917;-79
2022/11/19 17:19:48;;;;;;;;;;;2.80;89.90;;;;;;5042598;28;19947;-78
2022/11/19 17:22:16;;;;;;;;;;;2.80;89.90;;;;;;5047127;28;20495;-79
2022/11/19 17:24:42;;;;;;;;;;;2.80;89.90;;;;;;5020614;28;19917;-78
2022/11/19 17:27:27;;;;;;;;;;;2.80;89.90;;;;;;5037925;28;19925;-79
2022/11/19 17:30:02;;;;;;;;;;;2.80;89.90;;;;;;5042289;28;19942;-79
2022/11/19 17:32:37;;;;;;;;;;;2.80;89.90;;;;;;5041848;28;19928;-79
2022/11/19 17:35:05;;;;;;;;;;;2.80;89.90;;;;;;5038269;28;20100;-79
2022/11/19 17:37:31;;;;;;;;;;;2.80;89.90;;;;;;5044349;28;20547;-78
2022/11/19 17:39:56;;;;;;;;;;;2.80;90.00;;;;;;5041943;28;20428;-79
2022/11/19 17:45:06;;;;;;;;;;;2.80;89.90;;;;;;5052688;28;19924;-78
2022/11/19 17:47:32;;;;;;;;;;;2.80;89.90;;;;;;5054218;28;19925;-79